createdAt,value
2022-11-19T00:01:19.939Z,81.39
2022-11-19T00:03:52.383Z,81.14
2022-11-19T00:06:21.941Z,80.78
2022-11-19T00:08:51.139Z,80.82
2022-11-19T00:11:40.781Z,80.43
2022-11-19T00:14:07.898Z,80.76
2022-11-19T00:16:35.564Z,80.86
2022-11-19T00:19:03.095Z,80.77
2022-11-19T00:21:30.552Z,80.98
2022-11-19T00:23:59.531Z,80.66
2022-11-19T00:26:27.023Z,80.64
2022-11-19T00:28:55.465Z,80.73
2022-11-19T00:31:22.950Z,80.74
2022-11-19T00:33:50.532Z,80.98
2022-11-19T00:36:18.092Z,80.57
2022-11-19T00:38:45.555Z,79.96
2022-11-19T00:41:14.404Z,80.11
2022-11-19T00:43:48.249Z,80.34
2022-11-19T00:46:16.557Z,80.28
2022-11-19T00:48:44.373Z,80.28
2022-11-19T00:51:12.589Z,80.40
2022-11-19T00:53:40.149Z,80.35
2022-11-19T00:56:09.419Z,80.40
2022-11-19T00:58:39.015Z,80.11
2022-11-19T01:01:08.613Z,80.02
2022-11-19T01:03:36.343Z,80.05
2022-11-19T01:06:04.020Z,80.03
2022-11-19T01:08:31.630Z,80.14
2022-11-19T01:11:05.254Z,80.32
2022-11-19T01:13:35.933Z,79.98
2022-11-19T01:16:06.700Z,80.55
2022-11-19T01:18:34.772Z,79.79
2022-11-19T01:21:02.275Z,80.08
2022-11-19T01:23:29.769Z,79.72
2022-11-19T01:25:57.354Z,79.63
2022-11-19T01:28:24.938Z,80.06
2022-11-19T01:30:52.794Z,79.34
2022-11-19T01:33:22.709Z,79.62
2022-11-19T01:35:57.787Z,79.62
2022-11-19T01:38:25.326Z,79.63
2022-11-19T01:40:53.241Z,78.84
2022-11-19T01:43:20.953Z,79.65
2022-11-19T01:45:49.809Z,79.76
2022-11-19T01:48:21.940Z,79.77
2022-11-19T01:50:51.284Z,79.96
2022-11-19T01:53:20.446Z,79.42
2022-11-19T01:55:48.350Z,79.95
2022-11-19T01:58:18.506Z,79.47
2022-11-19T02:00:46.659Z,79.07
2022-11-19T02:03:15.475Z,79.54
2022-11-19T02:05:44.747Z,79.78
2022-11-19T02:08:37.639Z,79.50
2022-11-19T02:11:20.806Z,79.80
2022-11-19T02:13:53.758Z,78.72
2022-11-19T02:16:27.386Z,79.42
2022-11-19T02:18:56.990Z,79.40
2022-11-19T02:21:32.998Z,79.41
2022-11-19T02:24:33.834Z,79.27
2022-11-19T02:27:37.018Z,78.94
2022-11-19T02:30:08.483Z,78.68
2022-11-19T02:32:40.198Z,78.99
2022-11-19T02:35:15.382Z,78.56
2022-11-19T02:37:46.233Z,78.39
2022-11-19T02:40:19.361Z,78.20
2022-11-19T02:42:53.290Z,78.53
2022-11-19T02:45:23.956Z,78.47
2022-11-19T02:47:53.651Z,78.25
2022-11-19T02:50:22.796Z,78.44
2022-11-19T02:52:50.485Z,77.56
2022-11-19T02:55:19.530Z,77.98
2022-11-19T02:57:50.311Z,77.92
2022-11-19T03:00:37.221Z,77.21
2022-11-19T03:03:26.101Z,77.60
2022-11-19T03:05:56.822Z,78.02
2022-11-19T03:08:24.591Z,78.06
2022-11-19T03:10:56.379Z,77.77
2022-11-19T03:13:43.187Z,78.13
2022-11-19T03:16:32.476Z,78.44
2022-11-19T03:19:06.714Z,78.47
2022-11-19T03:21:38.131Z,78.58
2022-11-19T03:24:08.478Z,78.97
2022-11-19T03:26:38.556Z,78.84
2022-11-19T03:29:10.125Z,78.99
2022-11-19T03:31:39.592Z,78.44
2022-11-19T03:34:11.242Z,77.93
2022-11-19T03:36:40.238Z,78.41
2022-11-19T03:39:11.322Z,78.67
2022-11-19T03:41:40.611Z,78.40
2022-11-19T03:44:12.967Z,78.38
2022-11-19T03:46:41.040Z,78.47
2022-11-19T03:49:10.933Z,78.46
2022-11-19T03:51:45.203Z,78.86
2022-11-19T03:54:14.080Z,78.54
2022-11-19T03:56:42.597Z,78.01
2022-11-19T03:59:11.162Z,78.30
2022-11-19T04:01:39.255Z,78.72
2022-11-19T04:04:24.474Z,78.15
2022-11-19T04:06:53.256Z,78.32
2022-11-19T04:09:21.162Z,77.47
2022-11-19T04:14:15.246Z,78.46
2022-11-19T04:16:42.689Z,78.00
2022-11-19T04:19:10.409Z,78.24
2022-11-19T04:21:37.874Z,77.98
2022-11-19T04:24:07.735Z,77.99
2022-11-19T04:26:35.235Z,78.71
2022-11-19T04:29:02.937Z,78.13
2022-11-19T04:31:30.427Z,77.97
2022-11-19T04:33:57.906Z,77.69
2022-11-19T04:36:25.413Z,77.56
2022-11-19T04:38:52.872Z,77.43
2022-11-19T04:41:21.690Z,77.85
2022-11-19T04:43:49.146Z,77.53
2022-11-19T04:46:16.655Z,77.52
2022-11-19T04:48:44.139Z,77.32
2022-11-19T04:51:11.614Z,77.74
2022-11-19T04:53:39.075Z,78.13
2022-11-19T04:56:07.399Z,78.11
2022-11-19T04:58:36.551Z,78.38
2022-11-19T05:01:04.412Z,78.37
2022-11-19T05:03:32.019Z,78.36
2022-11-19T05:05:59.571Z,78.52
2022-11-19T05:08:27.067Z,78.22
2022-11-19T05:10:54.527Z,78.48
2022-11-19T05:13:22.036Z,78.23
2022-11-19T05:15:50.910Z,78.02
2022-11-19T05:18:18.418Z,78.52
2022-11-19T05:20:45.934Z,78.47
2022-11-19T05:23:13.523Z,78.55
2022-11-19T05:25:41.057Z,78.71
2022-11-19T05:28:08.564Z,78.41
2022-11-19T05:30:36.124Z,78.48
2022-11-19T05:33:05.083Z,78.65
2022-11-19T05:35:32.927Z,78.61
2022-11-19T05:38:00.379Z,78.57
2022-11-19T05:40:27.851Z,78.79
2022-11-19T05:42:55.380Z,77.97
2022-11-19T05:45:22.810Z,78.64
2022-11-19T05:47:55.287Z,78.22
2022-11-19T05:50:24.087Z,78.32
2022-11-19T05:52:51.798Z,78.20
2022-11-19T05:55:19.290Z,78.12
2022-11-19T05:57:46.726Z,78.21
2022-11-19T06:00:16.939Z,78.67
2022-11-19T06:02:44.524Z,78.74
2022-11-19T06:05:12.140Z,78.58
2022-11-19T06:07:41.014Z,78.40
2022-11-19T06:10:09.802Z,78.20
2022-11-19T06:12:41.209Z,78.00
2022-11-19T06:15:11.873Z,78.20
2022-11-19T06:17:39.318Z,77.42
2022-11-19T06:20:08.625Z,77.92
2022-11-19T06:22:36.240Z,77.26
2022-11-19T06:25:05.490Z,77.29
2022-11-19T06:27:32.968Z,77.96
2022-11-19T06:30:00.385Z,77.74
2022-11-19T06:32:27.959Z,77.87
2022-11-19T06:34:55.419Z,78.20
2022-11-19T06:37:23.123Z,77.82
2022-11-19T06:39:50.594Z,78.03
2022-11-19T06:42:39.197Z,77.86
2022-11-19T06:45:09.296Z,77.75
2022-11-19T06:47:37.319Z,78.14
2022-11-19T06:50:06.610Z,77.77
2022-11-19T06:52:34.095Z,77.80
2022-11-19T06:55:01.606Z,77.51
2022-11-19T06:57:30.402Z,77.46
2022-11-19T06:59:57.879Z,77.71
2022-11-19T07:02:25.313Z,77.81
2022-11-19T07:04:52.754Z,78.00
2022-11-19T07:07:20.256Z,78.17
2022-11-19T07:09:47.819Z,77.92
2022-11-19T07:12:15.247Z,77.52
2022-11-19T07:14:44.021Z,77.53
2022-11-19T07:17:11.503Z,77.63
2022-11-19T07:19:38.959Z,77.97
2022-11-19T07:22:06.437Z,78.14
2022-11-19T07:24:33.874Z,77.96
2022-11-19T07:27:01.319Z,77.91
2022-11-19T07:29:28.804Z,77.93
2022-11-19T07:31:57.590Z,77.86
2022-11-19T07:34:25.038Z,78.50
2022-11-19T07:36:52.603Z,78.32
2022-11-19T07:39:20.261Z,78.66
2022-11-19T07:42:05.257Z,78.74
2022-11-19T07:44:35.056Z,79.08
2022-11-19T07:47:03.853Z,78.51
2022-11-19T07:49:31.364Z,78.79
2022-11-19T07:51:58.826Z,78.49
2022-11-19T07:54:26.289Z,78.15
2022-11-19T07:56:53.734Z,78.62
2022-11-19T07:59:21.642Z,78.52
2022-11-19T08:01:49.448Z,78.63
2022-11-19T08:04:18.298Z,78.58
2022-11-19T08:06:45.782Z,79.10
2022-11-19T08:09:13.233Z,78.32
2022-11-19T08:11:41.134Z,78.21
2022-11-19T08:14:08.578Z,78.30
2022-11-19T08:16:53.590Z,79.36
2022-11-19T08:19:22.895Z,79.96
2022-11-19T08:21:50.626Z,79.25
2022-11-19T08:24:20.740Z,79.51
2022-11-19T08:26:48.815Z,79.76
2022-11-19T08:29:17.542Z,79.70
2022-11-19T08:31:46.355Z,81.28
2022-11-19T08:34:14.194Z,81.81
2022-11-19T08:36:43.277Z,83.92
2022-11-19T08:39:11.040Z,84.10
2022-11-19T08:41:56.050Z,85.82
2022-11-19T08:44:23.724Z,86.14
2022-11-19T08:46:51.403Z,85.86
2022-11-19T08:49:18.976Z,87.05
2022-11-19T08:51:47.749Z,85.13
2022-11-19T08:54:15.235Z,85.20
2022-11-19T08:56:42.693Z,86.97
2022-11-19T08:59:10.253Z,86.82
2022-11-19T09:01:37.730Z,87.34
2022-11-19T09:04:05.476Z,88.81
2022-11-19T09:06:34.784Z,87.54
2022-11-19T09:09:03.856Z,87.33
2022-11-19T09:11:31.687Z,88.48
2022-11-19T09:13:59.157Z,88.64
2022-11-19T09:16:26.616Z,87.86
2022-11-19T09:18:54.155Z,87.19
2022-11-19T09:21:21.752Z,88.16
2022-11-19T09:23:49.198Z,88.08
2022-11-19T09:26:19.007Z,88.56
2022-11-19T09:28:46.752Z,88.14
2022-11-19T09:31:16.061Z,87.60
2022-11-19T09:33:45.872Z,87.80
2022-11-19T09:36:13.866Z,87.87
2022-11-19T09:38:41.766Z,87.97
2022-11-19T09:41:31.190Z,89.29
2022-11-19T09:44:07.035Z,88.23
2022-11-19T09:46:40.355Z,89.11
2022-11-19T09:49:12.025Z,89.68
2022-11-19T09:51:42.459Z,90.13
2022-11-19T09:54:16.011Z,89.98
2022-11-19T09:56:45.982Z,89.55
2022-11-19T09:59:20.362Z,90.17
2022-11-19T10:01:47.807Z,90.11
2022-11-19T10:04:15.882Z,89.81
2022-11-19T10:06:50.165Z,89.83
2022-11-19T10:09:35.022Z,87.81
2022-11-19T10:12:14.086Z,87.30
2022-11-19T10:14:49.779Z,88.25
2022-11-19T10:17:27.115Z,88.33
2022-11-19T10:20:04.962Z,89.85
2022-11-19T10:22:39.247Z,88.81
2022-11-19T10:25:17.354Z,89.28
2022-11-19T10:27:49.835Z,90.01
2022-11-19T10:30:19.411Z,90.18
2022-11-19T10:32:53.941Z,90.84
2022-11-19T10:35:24.292Z,90.82
2022-11-19T10:37:56.096Z,90.41
2022-11-19T10:40:25.334Z,91.04
2022-11-19T10:42:57.878Z,91.49
2022-11-19T10:45:27.569Z,91.86
2022-11-19T10:48:01.400Z,92.00
2022-11-19T10:50:32.291Z,91.38
2022-11-19T10:53:01.690Z,92.07
2022-11-19T10:55:31.367Z,92.23
2022-11-19T10:58:07.947Z,92.39
2022-11-19T11:00:36.532Z,91.82
2022-11-19T11:03:04.360Z,92.14
2022-11-19T11:05:32.279Z,92.35
2022-11-19T11:08:01.776Z,92.26
2022-11-19T11:10:37.387Z,91.42
2022-11-19T11:13:34.913Z,92.42
2022-11-19T11:16:08.076Z,91.39
2022-11-19T11:18:36.442Z,91.69
2022-11-19T11:21:03.910Z,92.18
2022-11-19T11:23:31.456Z,92.64
2022-11-19T11:26:06.002Z,92.34
2022-11-19T11:28:35.668Z,93.15
2022-11-19T11:31:04.792Z,92.93
2022-11-19T11:33:40.182Z,93.38
2022-11-19T11:36:09.448Z,93.25
2022-11-19T11:38:42.214Z,93.32
2022-11-19T11:42:01.996Z,93.83
2022-11-19T11:44:03.000Z,93.32
2022-11-19T11:46:39.374Z,93.71
2022-11-19T11:49:12.405Z,93.85
2022-11-19T11:51:40.694Z,93.81
2022-11-19T11:54:18.371Z,93.70
2022-11-19T11:56:46.797Z,93.54
2022-11-19T11:59:22.653Z,93.11
2022-11-19T12:01:54.939Z,93.65
2022-11-19T12:04:23.144Z,93.49
2022-11-19T12:06:58.849Z,93.08
2022-11-19T12:09:29.923Z,92.73
2022-11-19T12:12:02.819Z,93.45
2022-11-19T12:14:34.002Z,92.54
2022-11-19T12:17:11.455Z,93.69
2022-11-19T12:19:53.502Z,93.07
2022-11-19T12:22:28.831Z,93.18
2022-11-19T12:25:15.501Z,93.49
2022-11-19T12:27:54.107Z,93.78
2022-11-19T12:30:24.942Z,93.92
2022-11-19T12:33:11.378Z,93.73
2022-11-19T12:35:52.866Z,93.67
2022-11-19T12:38:27.110Z,93.80
2022-11-19T12:41:02.506Z,93.18
2022-11-19T12:43:42.916Z,94.24
2022-11-19T12:46:18.680Z,93.23
2022-11-19T12:48:57.664Z,94.16
2022-11-19T12:51:34.829Z,94.65
2022-11-19T12:54:16.070Z,93.79
2022-11-19T12:56:51.272Z,93.79
2022-11-19T12:59:30.938Z,93.12
2022-11-19T13:02:01.521Z,93.63
2022-11-19T13:04:33.237Z,93.53
2022-11-19T13:07:03.566Z,93.79
2022-11-19T13:09:35.626Z,94.12
2022-11-19T13:12:06.418Z,93.68
2022-11-19T13:14:38.959Z,94.08
2022-11-19T13:17:16.486Z,94.37
2022-11-19T13:19:47.479Z,94.42
2022-11-19T13:22:19.269Z,94.61
2022-11-19T13:24:48.152Z,94.28
2022-11-19T13:27:22.990Z,94.29
2022-11-19T13:29:53.963Z,94.20
2022-11-19T13:32:27.275Z,93.89
2022-11-19T13:35:05.458Z,94.13
2022-11-19T13:37:42.559Z,94.46
2022-11-19T13:40:19.357Z,94.39
2022-11-19T13:43:30.475Z,93.77
2022-11-19T13:46:00.020Z,94.16
2022-11-19T13:48:31.632Z,94.26
2022-11-19T13:51:01.150Z,93.44
2022-11-19T13:53:34.534Z,93.47
2022-11-19T13:56:02.200Z,93.62
2022-11-19T13:58:34.033Z,93.80
2022-11-19T14:01:34.357Z,93.65
2022-11-19T14:04:14.464Z,93.04
2022-11-19T14:06:57.887Z,93.55
2022-11-19T14:09:31.790Z,93.25
2022-11-19T14:12:09.026Z,93.22
2022-11-19T14:15:10.381Z,93.28
2022-11-19T14:18:01.557Z,92.94
2022-11-19T14:20:54.538Z,93.04
2022-11-19T14:23:58.065Z,92.73
2022-11-19T14:27:07.434Z,93.48
2022-11-19T14:30:09.870Z,93.35
2022-11-19T14:32:47.221Z,93.73
2022-11-19T14:35:34.612Z,93.42
2022-11-19T14:38:35.064Z,94.14
2022-11-19T14:41:30.802Z,93.05
2022-11-19T14:44:13.019Z,93.15
2022-11-19T14:46:42.537Z,92.85
2022-11-19T14:49:24.569Z,93.39
2022-11-19T14:51:54.294Z,93.02
2022-11-19T14:54:31.609Z,92.80
2022-11-19T14:57:08.842Z,92.33
2022-11-19T14:59:38.270Z,92.54
2022-11-19T15:02:17.325Z,92.31
2022-11-19T15:04:52.251Z,92.82
2022-11-19T15:07:34.329Z,92.18
2022-11-19T15:10:25.047Z,92.25
2022-11-19T15:13:05.979Z,91.79
2022-11-19T15:15:39.307Z,92.38
2022-11-19T15:18:16.067Z,91.89
2022-11-19T15:20:58.422Z,92.20
2022-11-19T15:23:29.839Z,93.14
2022-11-19T15:26:01.962Z,92.65
2022-11-19T15:28:40.588Z,92.48
2022-11-19T15:31:35.871Z,92.70
2022-11-19T15:34:35.061Z,92.48
2022-11-19T15:37:17.022Z,92.65
2022-11-19T15:39:46.928Z,92.18
2022-11-19T15:42:18.074Z,92.53
2022-11-19T15:44:50.498Z,91.94
2022-11-19T15:47:19.971Z,92.04
2022-11-19T15:49:48.094Z,91.58
2022-11-19T15:52:21.280Z,91.68
2022-11-19T15:54:48.743Z,92.00
2022-11-19T15:57:23.015Z,92.22
2022-11-19T15:59:53.723Z,91.93
2022-11-19T16:02:27.555Z,91.48
2022-11-19T16:04:55.226Z,91.62
2022-11-19T16:07:24.298Z,91.58
2022-11-19T16:09:52.126Z,91.39
2022-11-19T16:12:41.848Z,91.81
2022-11-19T16:15:35.928Z,91.60
2022-11-19T16:18:03.736Z,91.77
2022-11-19T16:20:31.420Z,91.92
2022-11-19T16:23:01.687Z,91.28
2022-11-19T16:25:33.467Z,91.56
2022-11-19T16:28:04.911Z,91.86
2022-11-19T16:30:40.499Z,91.78
2022-11-19T16:33:14.387Z,91.60
2022-11-19T16:35:42.027Z,91.73
2022-11-19T16:38:13.211Z,91.37
2022-11-19T16:40:54.892Z,91.23
2022-11-19T16:43:23.834Z,91.59
2022-11-19T16:45:51.408Z,91.73
2022-11-19T16:48:51.717Z,91.53
2022-11-19T16:51:27.108Z,91.55
2022-11-19T16:53:54.591Z,91.83
2022-11-19T16:56:23.140Z,91.26
2022-11-19T16:58:57.919Z,91.60
2022-11-19T17:01:28.288Z,91.65
2022-11-19T17:04:00.942Z,91.57
2022-11-19T17:06:32.645Z,92.14
2022-11-19T17:09:01.411Z,91.82
2022-11-19T17:12:07.886Z,91.74
2022-11-19T17:14:49.886Z,91.44
2022-11-19T17:17:44.498Z,92.06
2022-11-19T17:20:57.726Z,91.65
2022-11-19T17:23:26.214Z,91.51
2022-11-19T17:25:55.963Z,92.26
2022-11-19T17:28:28.407Z,92.42
2022-11-19T17:30:57.738Z,91.89
2022-11-19T17:33:25.214Z,91.55
2022-11-19T17:35:53.082Z,91.94
2022-11-19T17:38:23.832Z,92.39
2022-11-19T17:40:53.482Z,92.38
2022-11-19T17:43:40.216Z,92.76
2022-11-19T17:46:09.015Z,92.56
2022-11-19T17:48:39.406Z,92.49
2022-11-19T17:51:07.278Z,92.54
2022-11-19T17:53:34.755Z,93.28
2022-11-19T17:56:02.753Z,93.61
2022-11-19T17:58:30.206Z,93.02
2022-11-19T18:00:57.700Z,93.08
2022-11-19T18:03:26.528Z,93.52
2022-11-19T18:05:54.351Z,93.43
2022-11-19T18:08:21.788Z,93.74
2022-11-19T18:10:50.155Z,93.12
2022-11-19T18:13:20.895Z,93.33
2022-11-19T18:15:48.412Z,92.88
2022-11-19T18:18:15.887Z,93.27
2022-11-19T18:20:44.754Z,93.68
2022-11-19T18:23:13.274Z,93.33
2022-11-19T18:25:41.178Z,93.12
2022-11-19T18:28:08.640Z,92.91
2022-11-19T18:30:36.819Z,93.02
2022-11-19T18:33:04.562Z,92.49
2022-11-19T18:35:32.659Z,93.21
2022-11-19T18:38:01.454Z,92.69
2022-11-19T18:40:28.963Z,92.47
2022-11-19T18:43:14.009Z,92.74
2022-11-19T18:45:41.610Z,92.60
2022-11-19T18:48:09.059Z,92.81
2022-11-19T18:50:36.525Z,92.26
2022-11-19T18:53:09.703Z,92.50
2022-11-19T18:55:37.193Z,92.47
2022-11-19T18:58:04.869Z,92.45
2022-11-19T19:00:32.400Z,92.44
2022-11-19T19:03:00.596Z,92.15
2022-11-19T19:05:28.113Z,92.14
2022-11-19T19:07:55.582Z,91.94
2022-11-19T19:10:24.416Z,91.93
2022-11-19T19:12:50.901Z,91.75
2022-11-19T19:15:18.423Z,91.87
2022-11-19T19:17:45.895Z,92.25
2022-11-19T19:20:13.834Z,92.51
2022-11-19T19:22:41.309Z,91.73
2022-11-19T19:25:09.756Z,92.52
2022-11-19T19:27:38.555Z,92.66
2022-11-19T19:30:07.143Z,93.07
2022-11-19T19:32:34.602Z,92.59
2022-11-19T19:35:02.065Z,92.60
2022-11-19T19:37:29.517Z,92.64
2022-11-19T19:39:57.251Z,93.06
2022-11-19T19:42:24.744Z,92.67
2022-11-19T19:44:53.969Z,92.89
2022-11-19T19:47:21.462Z,92.98
2022-11-19T19:49:49.047Z,92.43
2022-11-19T19:52:16.533Z,92.79
2022-11-19T19:54:44.075Z,93.26
2022-11-19T19:57:11.863Z,92.39
2022-11-19T19:59:39.309Z,92.47
2022-11-19T20:02:09.927Z,93.40
2022-11-19T20:04:37.470Z,93.18
2022-11-19T20:07:05.361Z,92.72
2022-11-19T20:09:32.896Z,93.01
2022-11-19T20:12:00.848Z,93.22
2022-11-19T20:14:28.905Z,93.61
2022-11-19T20:16:56.394Z,94.04
2022-11-19T20:19:25.385Z,93.42
2022-11-19T20:21:54.366Z,93.77
2022-11-19T20:24:22.551Z,93.95
2022-11-19T20:26:49.978Z,93.98
2022-11-19T20:29:20.239Z,93.94
2022-11-19T20:31:49.200Z,93.66
2022-11-19T20:34:17.707Z,93.66
2022-11-19T20:36:47.106Z,94.11
2022-11-19T20:39:14.801Z,93.22
2022-11-19T20:42:00.095Z,93.17
2022-11-19T20:44:27.585Z,93.11
2022-11-19T20:46:56.262Z,93.18
2022-11-19T20:49:25.385Z,93.41
2022-11-19T20:51:54.501Z,92.59
2022-11-19T20:54:22.517Z,92.58
2022-11-19T20:56:51.329Z,92.45
2022-11-19T20:59:19.780Z,92.53
2022-11-19T21:01:48.835Z,92.73
2022-11-19T21:04:16.643Z,92.03
2022-11-19T21:06:44.188Z,92.89
2022-11-19T21:09:14.590Z,92.99
2022-11-19T21:11:42.067Z,92.33
2022-11-19T21:14:09.723Z,91.92
2022-11-19T21:16:37.174Z,92.75
2022-11-19T21:19:04.966Z,92.86
2022-11-19T21:21:32.434Z,92.55
2022-11-19T21:23:59.886Z,92.79
2022-11-19T21:26:29.386Z,92.96
2022-11-19T21:28:58.093Z,92.83
2022-11-19T21:31:38.068Z,93.12
2022-11-19T21:34:06.412Z,92.75
2022-11-19T21:36:33.985Z,93.05
2022-11-19T21:39:03.513Z,92.89
2022-11-19T21:41:32.355Z,92.56
2022-11-19T21:43:59.883Z,92.46
2022-11-19T21:46:27.358Z,92.10
2022-11-19T21:48:54.954Z,91.71
2022-11-19T21:51:25.007Z,91.55
2022-11-19T21:53:54.918Z,91.42
2022-11-19T21:56:22.430Z,91.33
2022-11-19T21:58:51.579Z,91.78
2022-11-19T22:01:19.110Z,92.25
2022-11-19T22:03:46.665Z,92.71
2022-11-19T22:06:14.118Z,92.25
2022-11-19T22:08:42.351Z,92.10
2022-11-19T22:11:25.076Z,91.97
2022-11-19T22:13:54.489Z,93.23
2022-11-19T22:16:22.650Z,92.74
2022-11-19T22:18:50.146Z,92.93
2022-11-19T22:21:17.787Z,92.18
2022-11-19T22:23:45.346Z,92.27
2022-11-19T22:26:13.519Z,91.97
2022-11-19T22:28:41.078Z,92.37
2022-11-19T22:31:10.067Z,91.47
2022-11-19T22:33:39.397Z,91.41
2022-11-19T22:36:10.394Z,91.71
2022-11-19T22:38:39.755Z,91.76
2022-11-19T22:41:09.326Z,91.69
2022-11-19T22:43:37.910Z,92.01
2022-11-19T22:46:06.659Z,91.45
2022-11-19T22:48:36.059Z,91.92
2022-11-19T22:51:05.976Z,92.61
2022-11-19T22:53:35.183Z,91.96
2022-11-19T22:56:03.096Z,91.52
2022-11-19T22:58:30.760Z,91.93
2022-11-19T23:00:58.288Z,91.78
2022-11-19T23:03:25.845Z,92.24
2022-11-19T23:05:55.370Z,91.97
2022-11-19T23:08:23.026Z,91.55
2022-11-19T23:10:57.990Z,91.76
2022-11-19T23:13:34.080Z,91.33
2022-11-19T23:16:05.687Z,91.46
2022-11-19T23:18:34.871Z,90.97
2022-11-19T23:21:06.238Z,91.14
2022-11-19T23:23:34.800Z,91.12
2022-11-19T23:26:03.259Z,91.28
2022-11-19T23:28:32.157Z,91.68
2022-11-19T23:31:03.658Z,91.83
2022-11-19T23:33:31.179Z,91.90
2022-11-19T23:36:04.229Z,91.92
2022-11-19T23:38:31.815Z,91.90
2022-11-19T23:40:59.790Z,91.93
2022-11-19T23:43:27.505Z,90.99
2022-11-19T23:45:55.979Z,90.71
2022-11-19T23:48:23.463Z,91.15
2022-11-19T23:50:50.902Z,90.64
2022-11-19T23:53:19.690Z,90.93
2022-11-19T23:55:47.810Z,90.97
2022-11-19T23:58:15.272Z,91.12
